Time;durP1;ratioP1;P1;durP2;ratioP2;P2;SDS_P1;SDS_P2;PMS_P1;PMS_P2;Temp;Humidity;BMP_temperature;BMP_pressure;BME280_temperature;BME280_humidity;BME280_pressure;Samples;Min_cycle;Max_cycle;Signal;HPM_P1;HPM_P2
2021/03/17 00:00:51;;;;;;;8.90;2.00;;;;;;;2.40;100.00;101646.84;5000695;28;20277;-78
2021/03/17 00:03:17;;;;;;;9.37;2.60;;;;;;;2.40;100.00;101636.50;4994888;28;20776;-77
2021/03/17 00:05:44;;;;;;;8.63;2.40;;;;;;;2.40;100.00;101630.47;4998482;28;20078;-79
2021/03/17 00:08:09;;;;;;;4.70;1.77;;;;;;;2.37;100.00;101632.91;5002081;28;20427;-79
2021/03/17 00:10:38;;;;;;;7.57;2.13;;;;;;;2.33;100.00;101635.34;4992603;28;20297;-78
2021/03/17 00:13:04;;;;;;;10.73;2.10;;;;;;;2.29;100.00;101627.34;4987026;28;20030;-78
2021/03/17 00:15:33;;;;;;;9.60;2.20;;;;;;;2.33;100.00;101625.03;4995417;28;20290;-77
2021/03/17 00:17:59;;;;;;;5.60;2.20;;;;;;;2.31;100.00;101626.66;4999261;28;20626;-77
2021/03/17 00:20:25;;;;;;;9.13;2.57;;;;;;;2.29;100.00;101632.53;4997060;28;20282;-77
2021/03/17 00:22:51;;;;;;;8.07;2.07;;;;;;;2.23;100.00;101635.69;4998944;28;20060;-77
2021/03/17 00:25:20;;;;;;;11.83;2.77;;;;;;;2.22;100.00;101636.50;4997942;28;20616;-77
2021/03/17 00:27:45;;;;;;;6.50;2.47;;;;;;;2.22;100.00;101638.19;5000002;28;20655;-78
2021/03/17 00:30:12;;;;;;;8.07;2.83;;;;;;;2.19;100.00;101626.03;4994165;28;20292;-78
2021/03/17 00:32:37;;;;;;;6.93;2.10;;;;;;;2.19;100.00;101620.88;4993908;28;20552;-79
2021/03/17 00:35:04;;;;;;;10.60;2.47;;;;;;;2.16;100.00;101630.13;4995491;28;20277;-79
2021/03/17 00:37:29;;;;;;;8.90;2.90;;;;;;;2.11;100.00;101627.34;4997870;28;20029;-78
2021/03/17 00:39:55;;;;;;;7.67;2.30;;;;;;;2.15;100.00;101628.38;4993180;28;20292;-78
2021/03/17 00:42:20;;;;;;;8.90;2.20;;;;;;;2.15;100.00;101633.53;5005252;28;20026;-78
2021/03/17 00:44:46;;;;;;;7.87;2.33;;;;;;;2.20;100.00;101648.44;4994266;28;20450;-79
2021/03/17 00:47:11;;;;;;;10.43;2.70;;;;;;;2.23;100.00;101635.69;4995025;28;20562;-79
2021/03/17 00:49:36;;;;;;;9.40;2.70;;;;;;;2.22;100.00;101639.09;4996742;28;20101;-79
2021/03/17 00:52:02;;;;;;;7.03;2.50;;;;;;;2.26;100.00;101641.00;4999050;28;20045;-78
2021/03/17 00:54:27;;;;;;;12.60;2.80;;;;;;;2.21;100.00;101639.91;5001259;28;20026;-78
2021/03/17 00:56:53;;;;;;;9.50;2.53;;;;;;;2.17;100.00;101645.69;4997373;28;20054;-78
2021/03/17 00:59:18;;;;;;;5.97;2.07;;;;;;;2.07;100.00;101646.06;4991830;28;20533;-79
2021/03/17 01:01:44;;;;;;;7.10;2.03;;;;;;;1.98;100.00;101650.75;4996015;28;20023;-78
2021/03/17 01:04:09;;;;;;;6.90;2.00;;;;;;;1.81;100.00;101652.44;4991712;28;20068;-78
2021/03/17 01:06:35;;;;;;;6.97;2.10;;;;;;;1.71;100.00;101651.09;5002241;28;20026;-79
2021/03/17 01:09:01;;;;;;;6.97;2.37;;;;;;;1.70;100.00;101654.47;4992910;28;20018;-79
2021/03/17 01:11:26;;;;;;;6.73;2.33;;;;;;;1.67;100.00;101651.72;4998952;28;20364;-78
2021/03/17 01:13:53;;;;;;;8.50;2.23;;;;;;;1.71;100.00;101640.78;4987760;28;21341;-79
2021/03/17 01:16:18;;;;;;;5.73;2.30;;;;;;;1.79;100.00;101632.53;4997545;28;20387;-79
2021/03/17 01:18:44;;;;;;;8.67;2.00;;;;;;;1.85;100.00;101648.34;4981791;28;20105;-79
2021/03/17 01:21:09;;;;;;;14.43;2.73;;;;;;;1.86;100.00;101645.84;5000895;28;20541;-79
2021/03/17 01:23:35;;;;;;;6.30;2.17;;;;;;;1.94;100.00;101644.53;4993133;28;20399;-79
2021/03/17 01:26:02;;;;;;;5.67;2.20;;;;;;;1.95;100.00;101648.00;4996915;28;20064;-79
2021/03/17 01:28:28;;;;;;;9.30;2.60;;;;;;;1.96;100.00;101644.63;4994164;28;20029;-79
2021/03/17 01:30:58;;;;;;;8.97;2.43;;;;;;;1.97;100.00;101638.66;5000840;28;20356;-78
2021/03/17 01:33:26;;;;;;;13.80;2.10;;;;;;;2.00;100.00;101633.66;4993231;28;20034;-78
2021/03/17 01:35:51;;;;;;;6.20;2.10;;;;;;;2.09;100.00;101640.97;4993326;28;20281;-78
2021/03/17 01:38:17;;;;;;;9.13;2.30;;;;;;;2.13;100.00;101641.19;4992416;28;20405;-78
2021/03/17 01:40:44;;;;;;;4.90;1.87;;;;;;;2.18;100.00;101655.22;4992681;28;20121;-78
2021/03/17 01:43:10;;;;;;;6.80;1.80;;;;;;;2.16;100.00;101646.50;5007172;28;20623;-78
2021/03/17 01:45:37;;;;;;;10.60;2.37;;;;;;;2.21;100.00;101654.50;4988276;28;20277;-79
2021/03/17 01:48:03;;;;;;;24.97;2.57;;;;;;;2.21;100.00;101650.22;4993448;28;20304;-79
2021/03/17 01:50:35;;;;;;;4.73;1.60;;;;;;;2.22;100.00;101656.25;4990550;28;20306;-78
2021/03/17 01:53:13;;;;;;;8.00;2.13;;;;;;;2.23;100.00;101655.44;5008390;28;20036;-78
2021/03/17 01:55:40;;;;;;;12.20;2.20;;;;;;;2.22;100.00;101644.25;4995480;28;20041;-78
2021/03/17 01:58:07;;;;;;;8.80;1.80;;;;;;;2.22;100.00;101646.81;4997040;28;20466;-79
2021/03/17 02:00:33;;;;;;;4.60;1.70;;;;;;;2.22;100.00;101639.09;4993049;28;20347;-79
2021/03/17 02:02:59;;;;;;;6.20;1.80;;;;;;;2.22;100.00;101639.09;4994756;28;20837;-78
2021/03/17 02:05:35;;;;;;;5.80;1.67;;;;;;;2.25;100.00;101644.38;4990599;28;20675;-78
2021/03/17 02:08:12;;;;;;;9.10;2.10;;;;;;;2.23;100.00;101643.44;4993230;28;20293;-78
2021/03/17 02:10:38;;;;;;;6.97;1.97;;;;;;;2.28;100.00;101646.22;4986061;28;20641;-78
2021/03/17 02:13:30;;;;;;;5.37;1.60;;;;;;;2.24;100.00;101652.94;4995666;28;20360;-78
2021/03/17 02:16:16;;;;;;;5.57;1.30;;;;;;;2.24;100.00;101650.38;4979213;28;20056;-78
2021/03/17 02:18:54;;;;;;;6.63;1.70;;;;;;;2.27;100.00;101655.66;4991390;28;20037;-78
2021/03/17 02:21:32;;;;;;;5.57;1.40;;;;;;;2.27;100.00;101650.50;4993104;28;20361;-78
2021/03/17 02:24:10;;;;;;;7.43;1.87;;;;;;;2.27;100.00;101645.34;4983665;28;20289;-78
2021/03/17 02:26:38;;;;;;;9.20;2.80;;;;;;;2.27;100.00;101642.75;4992224;28;20281;-79
2021/03/17 02:29:47;;;;;;;6.73;1.40;;;;;;;2.27;100.00;101655.66;4992748;28;20364;-79
2021/03/17 02:32:31;;;;;;;5.10;1.63;;;;;;;2.28;100.00;101647.13;4938887;28;20297;-78
2021/03/17 02:35:00;;;;;;;7.80;1.47;;;;;;;2.32;100.00;101646.47;4993477;28;20815;-79
2021/03/17 02:37:27;;;;;;;4.40;1.47;;;;;;;2.30;100.00;101648.09;4992301;28;20722;-79
2021/03/17 02:40:02;;;;;;;6.60;2.07;;;;;;;2.33;100.00;101648.25;4991573;28;20303;-78
2021/03/17 02:42:35;;;;;;;6.07;1.50;;;;;;;2.35;100.00;101636.31;4993483;28;20402;-78
2021/03/17 02:45:08;;;;;;;6.90;1.30;;;;;;;2.38;100.00;101634.69;4983693;28;20697;-78
2021/03/17 02:47:43;;;;;;;11.73;1.57;;;;;;;2.37;100.00;101635.50;4990771;28;20320;-78
2021/03/17 02:50:11;;;;;;;7.10;2.27;;;;;;;2.38;100.00;101639.84;4995556;28;20753;-78
2021/03/17 02:52:42;;;;;;;4.80;1.50;;;;;;;2.35;100.00;101635.41;4996253;28;20292;-78
2021/03/17 02:55:08;;;;;;;3.40;1.30;;;;;;;2.35;100.00;101633.72;4996505;28;20288;-79
2021/03/17 02:57:37;;;;;;;6.17;1.30;;;;;;;2.38;100.00;101635.56;4996937;28;20258;-78
2021/03/17 03:00:06;;;;;;;7.17;1.30;;;;;;;2.37;100.00;101620.00;4994506;28;20352;-78
2021/03/17 03:02:34;;;;;;;8.43;1.50;;;;;;;2.38;100.00;101626.94;4994241;28;20285;-79
2021/03/17 03:05:01;;;;;;;5.20;1.50;;;;;;;2.34;100.00;101621.63;4994773;28;20281;-79
2021/03/17 03:07:30;;;;;;;5.13;1.60;;;;;;;2.32;100.00;101618.09;4995558;28;20291;-79
2021/03/17 03:09:56;;;;;;;6.07;1.40;;;;;;;2.32;100.00;101627.53;4995524;28;20269;-79
2021/03/17 03:12:23;;;;;;;5.97;1.47;;;;;;;2.33;100.00;101630.19;4994578;28;20355;-79
2021/03/17 03:14:52;;;;;;;3.83;1.37;;;;;;;2.32;100.00;101628.41;4994054;28;20499;-79
2021/03/17 03:17:18;;;;;;;5.60;1.30;;;;;;;2.36;100.00;101634.59;4994698;28;20349;-78
2021/03/17 03:19:51;;;;;;;6.10;1.37;;;;;;;2.35;100.00;101625.97;4994363;28;20281;-78
2021/03/17 03:22:18;;;;;;;4.88;1.20;;;;;;;2.38;100.00;101640.72;4994850;28;20281;-78
2021/03/17 03:24:44;;;;;;;3.77;1.40;;;;;;;2.38;100.00;101637.25;4993151;28;20486;-78
2021/03/17 03:27:13;;;;;;;4.23;1.20;;;;;;;2.38;100.00;101637.25;4994847;28;20289;-78
2021/03/17 03:29:38;;;;;;;3.50;1.07;;;;;;;2.39;100.00;101644.19;4996124;28;20704;-78
2021/03/17 03:32:06;;;;;;;3.97;1.17;;;;;;;2.37;100.00;101638.06;4993755;28;20352;-78
2021/03/17 03:34:32;;;;;;;5.10;1.30;;;;;;;2.38;100.00;101638.13;4993796;28;20034;-79
2021/03/17 03:36:58;;;;;;;7.03;1.40;;;;;;;2.41;100.00;101637.41;4995125;28;20293;-78
2021/03/17 03:39:24;;;;;;;6.13;1.33;;;;;;;2.41;100.00;101634.81;4993876;28;20762;-78
2021/03/17 03:41:50;;;;;;;4.73;1.13;;;;;;;2.39;100.00;101636.44;4990618;28;20292;-78
2021/03/17 03:44:16;;;;;;;3.47;1.43;;;;;;;2.42;100.00;101634.00;4996086;28;20034;-78
2021/03/17 03:46:41;;;;;;;6.23;1.27;;;;;;;2.42;100.00;101636.59;4993053;28;20108;-77
2021/03/17 03:49:07;;;;;;;7.17;1.20;;;;;;;2.42;100.00;101640.06;4992897;28;20085;-77
2021/03/17 03:51:36;;;;;;;4.67;1.57;;;;;;;2.45;100.00;101636.75;4994119;28;20072;-77
2021/03/17 03:54:26;;;;;;;7.67;1.17;;;;;;;2.50;100.00;101632.69;4994788;28;20618;-78
2021/03/17 03:57:02;;;;;;;2.20;0.90;;;;;;;2.46;100.00;101628.22;4994101;28;20281;-78
2021/03/17 03:59:32;;;;;;;4.97;0.90;;;;;;;2.33;100.00;101625.03;4991471;28;20320;-78
2021/03/17 04:02:00;;;;;;;7.03;1.77;;;;;;;2.29;100.00;101628.25;4992955;28;20373;-77
2021/03/17 04:04:31;;;;;;;4.60;1.37;;;;;;;2.25;100.00;101635.75;4993595;28;20360;-77
2021/03/17 04:07:01;;;;;;;6.87;1.20;;;;;;;2.17;100.00;101637.94;4994149;28;20281;-77
2021/03/17 04:09:33;;;;;;;2.53;0.97;;;;;;;2.14;100.00;101640.38;4993866;28;20618;-77
2021/03/17 04:12:01;;;;;;;5.80;1.17;;;;;;;2.12;100.00;101644.59;4996019;28;20335;-77
2021/03/17 04:14:32;;;;;;;2.73;1.20;;;;;;;2.09;100.00;101641.84;4993616;28;20069;-78
2021/03/17 04:17:12;;;;;;;5.77;1.67;;;;;;;2.08;100.00;101642.66;4989863;28;20376;-78
2021/03/17 04:19:40;;;;;;;7.30;1.40;;;;;;;2.11;100.00;101647.97;4994097;28;20282;-78
2021/03/17 04:22:07;;;;;;;4.27;1.30;;;;;;;2.11;100.00;101658.28;4992795;28;20765;-78
2021/03/17 04:24:34;;;;;;;7.13;1.77;;;;;;;2.13;100.00;101654.09;4993555;28;20833;-78
2021/03/17 04:27:01;;;;;;;7.17;1.70;;;;;;;2.14;100.00;101665.28;4993657;28;20615;-78
2021/03/17 04:29:30;;;;;;;4.37;1.30;;;;;;;2.14;100.00;101661.03;4993697;28;20309;-77
2021/03/17 04:31:57;;;;;;;3.30;1.40;;;;;;;2.18;100.00;101675.88;4994322;28;20277;-77
2021/03/17 04:34:23;;;;;;;2.90;1.00;;;;;;;2.19;100.00;101661.28;4992960;28;20277;-78
2021/03/17 04:36:50;;;;;;;5.83;1.20;;;;;;;2.24;100.00;101662.38;4990267;28;20304;-78
2021/03/17 04:39:19;;;;;;;4.73;1.20;;;;;;;2.26;100.00;101658.19;4992146;28;20297;-78
2021/03/17 04:41:46;;;;;;;5.90;1.30;;;;;;;2.30;100.00;101666.16;4992061;28;20277;-78
2021/03/17 04:44:14;;;;;;;3.07;1.20;;;;;;;2.34;100.00;101656.88;4987850;28;20625;-78
2021/03/17 04:46:42;;;;;;;5.63;2.50;;;;;;;2.35;100.00;101654.38;4989287;28;20484;-78
2021/03/17 04:49:08;;;;;;;3.13;1.10;;;;;;;2.35;100.00;101654.38;4992473;28;20277;-78
2021/03/17 04:51:35;;;;;;;3.93;0.90;;;;;;;2.36;100.00;101663.00;4993644;28;20289;-78
2021/03/17 04:54:01;;;;;;;7.53;1.20;;;;;;;2.32;100.00;101664.53;4993247;28;20277;-77
2021/03/17 04:56:28;;;;;;;5.80;1.17;;;;;;;2.30;100.00;101666.16;4986069;28;20273;-78
2021/03/17 04:58:53;;;;;;;10.13;1.50;;;;;;;2.29;100.00;101664.38;4993535;28;20026;-78
2021/03/17 05:01:20;;;;;;;2.13;1.13;;;;;;;2.23;100.00;101666.66;4992903;28;20630;-78
2021/03/17 05:03:47;;;;;;;4.47;1.10;;;;;;;2.19;100.00;101667.31;4990547;28;20049;-78
2021/03/17 05:06:14;;;;;;;6.13;1.17;;;;;;;2.16;100.00;101655.94;4989625;28;20630;-78
2021/03/17 05:08:43;;;;;;;5.33;1.20;;;;;;;2.14;100.00;101658.44;4993197;28;20285;-78
2021/03/17 05:11:09;;;;;;;2.43;0.97;;;;;;;2.14;100.00;101658.44;4992398;28;20634;-78
2021/03/17 05:13:36;;;;;;;2.70;1.20;;;;;;;2.15;100.00;101659.31;4992062;28;20375;-78
2021/03/17 05:16:04;;;;;;;5.37;1.30;;;;;;;2.13;100.00;101656.69;4993323;28;20290;-78
2021/03/17 05:18:30;;;;;;;4.10;1.13;;;;;;;2.12;100.00;101657.47;4991713;28;20286;-77
2021/03/17 05:20:57;;;;;;;3.83;1.50;;;;;;;2.14;100.00;101663.59;4991890;28;20281;-77
2021/03/17 05:23:23;;;;;;;2.97;0.93;;;;;;;2.09;100.00;101654.75;4993275;28;20654;-77
2021/03/17 05:25:49;;;;;;;4.37;1.10;;;;;;;2.10;100.00;101661.69;4992496;28;20281;-77
2021/03/17 05:28:17;;;;;;;3.43;1.20;;;;;;;2.15;100.00;101669.66;4992789;28;20059;-77
2021/03/17 05:30:48;;;;;;;6.13;1.10;;;;;;;2.14;100.00;101663.59;4991584;28;20285;-77
2021/03/17 05:33:16;;;;;;;4.18;1.58;;;;;;;2.18;100.00;101660.38;4993770;28;20349;-77
2021/03/17 05:35:42;;;;;;;6.13;1.20;;;;;;;2.21;100.00;101663.13;4991672;28;20036;-77
2021/03/17 05:38:07;;;;;;;6.67;1.30;;;;;;;2.25;100.00;101657.28;4991787;28;20281;-77
2021/03/17 05:40:35;;;;;;;8.63;1.30;;;;;;;2.28;100.00;101660.03;4991653;28;20113;-78
2021/03/17 05:43:03;;;;;;;6.77;1.60;;;;;;;2.33;100.00;101660.28;4989874;28;20060;-78
2021/03/17 05:45:29;;;;;;;6.50;1.60;;;;;;;2.35;100.00;101663.81;4990816;28;20282;-78
2021/03/17 05:47:55;;;;;;;5.50;1.70;;;;;;;2.35;100.00;101661.22;4992579;28;20638;-77
2021/03/17 05:50:22;;;;;;;4.30;1.60;;;;;;;2.37;100.00;101656.13;4992517;28;20390;-77
2021/03/17 05:52:48;;;;;;;4.90;1.30;;;;;;;2.37;100.00;101659.59;4998110;28;20291;-77
2021/03/17 05:55:16;;;;;;;7.67;1.70;;;;;;;2.38;100.00;101663.94;4990809;28;20282;-78
2021/03/17 05:57:43;;;;;;;4.67;1.33;;;;;;;2.37;100.00;101663.88;4990999;28;20060;-77
2021/03/17 06:00:17;;;;;;;7.43;1.90;;;;;;;2.39;100.00;101670.88;4993171;28;20297;-77
2021/03/17 06:02:43;;;;;;;7.13;3.40;;;;;;;2.39;100.00;101664.84;4990331;28;20285;-77
2021/03/17 06:05:11;;;;;;;4.67;1.67;;;;;;;2.44;100.00;101678.88;4992512;28;20780;-77
2021/03/17 06:07:45;;;;;;;20.67;2.97;;;;;;;2.46;100.00;101672.09;4990412;28;20301;-78
2021/03/17 06:10:11;;;;;;;7.20;2.07;;;;;;;2.49;100.00;101677.41;4992012;28;20274;-78
2021/03/17 06:12:38;;;;;;;9.67;2.07;;;;;;;2.50;100.00;101668.84;4987381;28;20281;-77
2021/03/17 06:15:06;;;;;;;8.33;2.23;;;;;;;2.56;100.00;101682.06;4991657;28;20693;-78
2021/03/17 06:17:35;;;;;;;6.97;1.87;;;;;;;2.61;100.00;101683.16;4992816;28;20288;-77
2021/03/17 06:20:06;;;;;;;9.33;2.00;;;;;;;2.67;100.00;101687.78;4989043;28;20288;-78
2021/03/17 06:22:34;;;;;;;4.47;1.27;;;;;;;2.67;100.00;101688.66;4988520;28;20777;-78
2021/03/17 06:25:07;;;;;;;12.00;2.10;;;;;;;2.71;100.00;101694.84;4996343;28;20478;-78
2021/03/17 06:27:41;;;;;;;5.47;1.57;;;;;;;2.72;100.00;101681.13;4996723;28;20721;-78
2021/03/17 06:30:08;;;;;;;3.30;1.20;;;;;;;2.72;100.00;101691.44;4992746;28;20292;-77
2021/03/17 06:32:35;;;;;;;6.13;1.33;;;;;;;2.76;100.00;101693.34;4996800;28;20294;-77
2021/03/17 06:35:01;;;;;;;6.90;1.70;;;;;;;2.80;100.00;101690.13;4998412;28;20372;-78
2021/03/17 06:37:38;;;;;;;4.93;1.63;;;;;;;2.84;100.00;101692.94;4997214;28;20808;-77
2021/03/17 06:40:20;;;;;;;9.90;1.80;;;;;;;2.87;100.00;101693.06;4996297;28;20339;-77
2021/03/17 06:42:46;;;;;;;4.25;1.38;;;;;;;2.93;100.00;101688.22;4997989;28;20293;-77
2021/03/17 06:45:12;;;;;;;6.13;1.20;;;;;;;2.97;100.00;101693.53;4998261;28;20034;-78
2021/03/17 06:47:38;;;;;;;9.43;1.67;;;;;;;3.04;100.00;101701.66;4996986;28;20030;-78
2021/03/17 06:50:12;;;;;;;4.97;1.30;;;;;;;3.11;100.00;101685.63;4998077;28;20280;-78
2021/03/17 06:52:45;;;;;;;6.87;2.37;;;;;;;3.16;100.00;101691.00;4996838;28;20084;-78
2021/03/17 06:55:17;;;;;;;7.73;1.67;;;;;;;3.14;100.00;101687.44;4996455;28;20634;-78
2021/03/17 06:57:45;;;;;;;4.20;1.50;;;;;;;3.19;100.00;101692.03;4997989;28;20669;-77
2021/03/17 07:00:31;;;;;;;5.83;1.57;;;;;;;3.29;100.00;101690.78;4992546;28;20288;-78
2021/03/17 07:03:11;;;;;;;5.10;1.70;;;;;;;3.27;100.00;101689.81;4995318;28;20277;-78
2021/03/17 07:05:45;;;;;;;5.97;1.20;;;;;;;3.35;100.00;101693.63;4995857;28;20281;-78
2021/03/17 07:08:13;;;;;;;7.47;1.77;;;;;;;3.48;100.00;101701.13;4985426;28;20269;-78
2021/03/17 07:10:54;;;;;;;8.17;1.43;;;;;;;3.55;100.00;101701.44;4997719;28;20343;-78
2021/03/17 07:13:20;;;;;;;9.63;1.73;;;;;;;3.55;100.00;101704.03;4996514;28;20277;-77
2021/03/17 07:15:53;;;;;;;3.87;1.10;;;;;;;3.62;100.00;101701.78;4995361;28;20305;-78
2021/03/17 07:18:21;;;;;;;5.00;1.13;;;;;;;3.65;100.00;101709.69;4996243;28;20023;-77
2021/03/17 07:20:58;;;;;;;7.57;1.43;;;;;;;3.67;100.00;101702.00;4997988;28;20273;-78
2021/03/17 07:23:33;;;;;;;5.70;1.10;;;;;;;3.71;100.00;101709.06;4997961;28;20642;-78
2021/03/17 07:26:17;;;;;;;3.37;1.10;;;;;;;3.79;100.00;101705.13;4997923;28;20657;-77
2021/03/17 07:29:12;;;;;;;8.83;1.37;;;;;;;4.03;100.00;101708.81;4997849;28;20675;-77
2021/03/17 07:31:48;;;;;;;8.53;1.40;;;;;;;4.06;100.00;101708.06;4995529;28;20368;-78
2021/03/17 07:34:21;;;;;;;6.77;1.30;;;;;;;4.27;100.00;101713.31;4995848;28;20331;-78
2021/03/17 07:37:08;;;;;;;3.53;1.10;;;;;;;4.19;100.00;101710.38;4990619;28;20316;-78
2021/03/17 07:39:42;;;;;;;4.33;1.17;;;;;;;4.13;100.00;101714.41;4988139;28;20293;-77
2021/03/17 07:42:12;;;;;;;3.50;0.90;;;;;;;4.27;100.00;101719.38;4993510;28;20638;-78
2021/03/17 07:44:41;;;;;;;5.93;1.00;;;;;;;4.36;100.00;101713.66;4995054;28;20898;-78
2021/03/17 07:47:11;;;;;;;5.43;1.10;;;;;;;4.30;100.00;101722.06;4994526;28;20277;-78
2021/03/17 07:49:40;;;;;;;3.57;1.20;;;;;;;4.21;100.00;101724.25;4995092;28;20269;-78
2021/03/17 07:52:09;;;;;;;4.30;1.10;;;;;;;4.30;100.00;101723.78;4994903;28;20273;-78
2021/03/17 07:54:38;;;;;;;4.23;1.13;;;;;;;4.09;100.00;101715.97;4995550;28;20317;-78
2021/03/17 07:57:08;;;;;;;5.73;1.43;;;;;;;4.27;100.00;101723.66;4995140;28;20683;-78
2021/03/17 07:59:34;;;;;;;5.20;1.57;;;;;;;4.80;100.00;101722.44;4995569;28;20371;-78
2021/03/17 08:02:00;;;;;;;3.40;1.33;;;;;;;5.06;99.88;101732.16;4999493;28;20273;-79
2021/03/17 08:04:28;;;;;;;5.57;1.47;;;;;;;4.98;99.40;101726.69;4994013;28;20034;-77
2021/03/17 08:06:59;;;;;;;5.30;1.03;;;;;;;4.84;99.07;101745.94;4995189;28;20500;-76
2021/03/17 08:09:25;;;;;;;3.77;1.13;;;;;;;4.91;98.99;101737.63;4990630;28;20278;-77
2021/03/17 08:11:52;;;;;;;3.13;1.10;;;;;;;4.58;97.84;101741.38;4988483;28;20327;-76
2021/03/17 08:14:19;;;;;;;5.43;1.07;;;;;;;4.64;99.48;101755.50;4993821;28;20438;-77
2021/03/17 08:16:44;;;;;;;4.60;1.57;;;;;;;4.62;99.03;101744.19;4994394;28;20045;-77
2021/03/17 08:19:28;;;;;;;4.80;1.33;;;;;;;4.85;100.00;101744.28;4995020;28;20804;-77
2021/03/17 08:22:01;;;;;;;5.80;1.87;;;;;;;4.91;98.18;101742.78;4994999;28;20057;-77
2021/03/17 08:24:33;;;;;;;4.40;1.27;;;;;;;4.95;97.44;101748.97;4993994;28;20034;-77
2021/03/17 08:27:20;;;;;;;4.38;1.10;;;;;;;4.71;98.86;101744.53;4993999;28;20045;-76
2021/03/17 08:29:49;;;;;;;9.60;1.30;;;;;;;4.69;100.00;101747.91;4994420;28;20102;-76
2021/03/17 08:32:20;;;;;;;2.67;0.90;;;;;;;4.49;100.00;101746.19;4994687;28;20089;-76
2021/03/17 08:34:56;;;;;;;2.37;0.80;;;;;;;4.14;100.00;101747.25;4993095;28;20269;-77
2021/03/17 08:37:54;;;;;;;7.07;1.17;;;;;;;4.03;100.00;101755.41;4993988;28;20269;-77
2021/03/17 08:40:47;;;;;;;5.67;1.00;;;;;;;3.98;100.00;101756.88;4993091;28;20285;-76
2021/03/17 08:43:40;;;;;;;7.35;1.23;;;;;;;4.05;100.00;101758.06;4991777;28;20293;-77
2021/03/17 08:46:13;;;;;;;;;;;;;;;4.14;100.00;101752.41;4991504;28;20057;-78
2021/03/17 08:49:04;;;;;;;2.87;1.07;;;;;;;4.13;100.00;101755.81;4993369;28;19914;-77
2021/03/17 08:51:45;;;;;;;2.13;0.90;;;;;;;4.02;100.00;101764.00;4994148;28;20814;-77
2021/03/17 08:54:29;;;;;;;3.67;1.07;;;;;;;4.08;100.00;101759.06;4993511;28;20289;-77
2021/03/17 08:56:54;;;;;;;5.10;1.20;;;;;;;4.32;100.00;101755.78;4983765;28;20262;-77
2021/03/17 08:59:20;;;;;;;4.80;1.43;;;;;;;4.52;100.00;101751.50;4993275;28;20340;-77
2021/03/17 09:01:45;;;;;;;6.10;1.70;;;;;;;4.93;100.00;101750.63;4995641;28;20030;-77
2021/03/17 09:04:47;;;;;;;10.53;1.40;;;;;;;4.81;100.00;101750.13;4993853;28;20081;-77
2021/03/17 09:07:13;;;;;;;4.00;1.10;;;;;;;4.98;100.00;101749.13;4992645;28;20494;-77
2021/03/17 09:09:51;;;;;;;6.20;1.10;;;;;;;7.40;93.90;101758.81;4993318;28;20586;-77
2021/03/17 09:12:40;;;;;;;6.93;1.50;;;;;;;9.47;81.39;101759.31;4992592;28;20022;-77
2021/03/17 09:15:12;;;;;;;2.53;0.70;;;;;;;9.27;77.63;101765.78;4984743;28;20146;-77
2021/03/17 09:17:47;;;;;;;7.32;1.30;;;;;;;7.37;86.81;101759.59;4988865;28;20479;-77
2021/03/17 09:20:15;;;;;;;4.00;0.90;;;;;;;7.37;87.49;101754.38;4992754;28;20072;-77
2021/03/17 09:22:55;;;;;;;4.67;1.10;;;;;;;7.54;85.44;101763.63;4992597;28;20026;-77
2021/03/17 09:25:38;;;;;;;7.67;1.53;;;;;;;7.57;88.61;101757.63;4992346;28;20041;-77
2021/03/17 09:28:09;;;;;;;3.67;0.90;;;;;;;7.95;86.84;101758.75;4991978;28;20046;-77
2021/03/17 09:30:39;;;;;;;3.47;1.08;;;;;;;7.83;84.07;101761.88;4993778;28;20038;-77
2021/03/17 09:33:08;;;;;;;4.67;1.53;;;;;;;8.33;84.74;101758.97;4993711;28;20083;-77
2021/03/17 09:35:34;;;;;;;6.17;1.20;;;;;;;8.64;81.95;101758.13;4993701;28;20034;-77
2021/03/17 09:38:12;;;;;;;9.00;1.80;;;;;;;7.58;84.31;101754.16;4992643;28;20522;-78
2021/03/17 09:40:45;;;;;;;6.43;1.70;;;;;;;7.07;84.77;101764.69;4993028;28;20053;-77
2021/03/17 09:43:22;;;;;;;4.53;1.67;;;;;;;6.74;85.67;101756.66;4993677;28;20065;-78
2021/03/17 09:45:48;;;;;;;4.73;2.00;;;;;;;6.68;86.60;101759.06;4993111;28;20066;-77
2021/03/17 09:48:16;;;;;;;6.80;1.80;;;;;;;6.64;87.35;101751.97;4992593;28;20053;-77
2021/03/17 09:50:42;;;;;;;6.20;2.07;;;;;;;6.88;84.42;101758.00;4992729;28;20022;-78
2021/03/17 09:53:13;;;;;;;4.87;1.77;;;;;;;7.55;82.42;101754.09;4993623;28;20080;-77
2021/03/17 09:55:39;;;;;;;5.47;2.00;;;;;;;8.10;77.91;101751.38;4992903;28;20030;-77
2021/03/17 09:58:08;;;;;;;3.60;1.53;;;;;;;8.05;78.32;101762.53;4992380;28;20037;-77
2021/03/17 10:00:35;;;;;;;6.00;1.60;;;;;;;7.92;80.72;101756.06;4991694;28;20033;-77
2021/03/17 10:03:04;;;;;;;7.63;1.93;;;;;;;7.32;81.49;101774.19;4990184;28;20030;-77
2021/03/17 10:05:30;;;;;;;6.77;1.70;;;;;;;6.76;85.15;101762.78;4986167;28;20027;-78
2021/03/17 10:07:56;;;;;;;6.00;1.70;;;;;;;6.25;89.10;101762.72;4992267;28;20050;-77
2021/03/17 10:10:23;;;;;;;8.43;1.40;;;;;;;5.96;91.06;101763.38;4991571;28;20019;-77
2021/03/17 10:12:49;;;;;;;9.03;1.70;;;;;;;5.67;96.92;101765.69;4989286;28;20030;-77
2021/03/17 10:15:19;;;;;;;4.73;1.50;;;;;;;5.31;100.00;101765.16;4992075;28;20042;-77
2021/03/17 10:17:45;;;;;;;6.57;2.20;;;;;;;5.27;100.00;101755.47;4990158;28;20494;-77
2021/03/17 10:20:18;;;;;;;6.87;1.63;;;;;;;5.30;100.00;101761.66;4991279;28;20173;-76
2021/03/17 10:22:46;;;;;;;6.30;1.70;;;;;;;5.40;100.00;101755.13;4992829;28;20378;-77
2021/03/17 10:25:14;;;;;;;9.57;1.73;;;;;;;5.77;100.00;101762.63;4992292;28;20045;-77
2021/03/17 10:27:42;;;;;;;5.23;1.30;;;;;;;5.80;99.22;101762.75;4992535;28;20349;-77
2021/03/17 10:30:25;;;;;;;12.23;1.80;;;;;;;5.77;94.84;101760.03;4991674;28;20126;-77
2021/03/17 10:32:51;;;;;;;;;;;;;;;5.71;97.71;101761.53;4992683;28;20041;-78
2021/03/17 10:35:18;;;;;;;3.87;1.30;;;;;;;5.83;93.77;101767.19;4992408;28;19914;-78
2021/03/17 10:37:46;;;;;;;5.50;1.40;;;;;;;5.98;94.71;101761.72;4992507;28;20031;-77
2021/03/17 10:40:14;;;;;;;2.63;1.13;;;;;;;5.95;91.10;101756.41;4991603;28;20041;-77
2021/03/17 10:43:12;;;;;;;3.87;1.20;;;;;;;6.24;92.59;101763.56;4992426;28;20475;-78
2021/03/17 10:45:54;;;;;;;4.00;1.33;;;;;;;7.05;91.50;101772.47;4993025;28;20022;-77
2021/03/17 10:48:24;;;;;;;3.45;1.30;;;;;;;7.78;84.65;101765.19;4995717;28;20425;-77
2021/03/17 10:50:51;;;;;;;2.77;0.90;;;;;;;8.18;79.24;101775.06;4993009;28;20041;-78
2021/03/17 10:53:23;;;;;;;4.30;1.30;;;;;;;8.36;79.90;101764.28;4992394;28;20117;-77
2021/03/17 10:55:50;;;;;;;4.03;1.13;;;;;;;8.68;75.51;101768.66;4991367;28;20026;-78
2021/03/17 10:58:22;;;;;;;4.27;0.90;;;;;;;8.59;76.35;101762.31;4992391;28;20503;-77
2021/03/17 11:00:56;;;;;;;5.88;1.25;;;;;;;8.39;77.56;101764.38;4992228;28;20093;-77
2021/03/17 11:03:34;;;;;;;4.10;1.00;;;;;;;8.28;78.18;101764.06;4987226;28;20518;-77
2021/03/17 11:06:14;;;;;;;7.47;1.20;;;;;;;8.30;76.87;101775.41;4986382;28;20085;-77
2021/03/17 11:08:41;;;;;;;2.70;1.00;;;;;;;8.26;75.06;101767.47;4986352;28;20072;-77
2021/03/17 11:11:08;;;;;;;2.73;1.10;;;;;;;7.86;73.77;101766.28;4983153;28;20026;-77
2021/03/17 11:13:44;;;;;;;0.90;0.67;;;;;;;8.05;74.96;101766.00;4995413;28;20501;-78
2021/03/17 11:16:26;;;;;;;2.37;0.90;;;;;;;7.89;75.59;101766.41;4995753;28;20070;-77
2021/03/17 11:18:57;;;;;;;2.22;1.00;;;;;;;7.83;76.65;101774.03;4996121;28;20463;-77
2021/03/17 11:21:29;;;;;;;1.87;0.90;;;;;;;7.69;77.91;101773.59;4999465;28;20069;-77
2021/03/17 11:23:58;;;;;;;2.08;0.80;;;;;;;7.70;77.51;101777.09;4996159;28;20026;-78
2021/03/17 11:26:29;;;;;;;2.37;0.93;;;;;;;7.66;73.16;101777.84;4996148;28;20030;-78
2021/03/17 11:28:57;;;;;;;2.50;0.90;;;;;;;7.67;72.91;101782.22;4982762;28;20033;-78
2021/03/17 11:31:29;;;;;;;4.03;1.03;;;;;;;7.72;73.02;101783.22;4995776;28;20101;-77
2021/03/17 11:33:55;;;;;;;3.50;0.80;;;;;;;7.71;73.70;101781.47;4994962;28;20482;-77
2021/03/17 11:36:21;;;;;;;2.50;0.90;;;;;;;7.66;73.95;101789.13;4994561;28;20382;-77
2021/03/17 11:38:47;;;;;;;2.83;1.00;;;;;;;7.70;74.52;101779.69;4995520;28;20032;-78
2021/03/17 11:41:13;;;;;;;6.00;1.40;;;;;;;7.46;74.13;101780.69;4995772;28;20444;-77